createdAt,value
2022-08-10T00:00:31.900Z,13.84
2022-08-10T00:03:01.166Z,13.91
2022-08-10T00:05:28.327Z,13.71
2022-08-10T00:08:10.656Z,13.77
2022-08-10T00:10:37.599Z,13.77
2022-08-10T00:13:04.309Z,13.74
2022-08-10T00:15:52.646Z,13.69
2022-08-10T00:18:35.223Z,13.62
2022-08-10T00:21:05.390Z,13.63
2022-08-10T00:23:32.970Z,13.76
2022-08-10T00:25:59.910Z,13.51
2022-08-10T00:28:26.592Z,13.40
2022-08-10T00:30:53.402Z,13.52
2022-08-10T00:33:20.973Z,13.50
2022-08-10T00:35:48.280Z,13.44
2022-08-10T00:38:15.068Z,13.57
2022-08-10T00:40:41.881Z,13.54
2022-08-10T00:43:08.934Z,13.34
2022-08-10T00:45:36.218Z,13.30
2022-08-10T00:48:03.977Z,13.31
2022-08-10T00:50:31.049Z,13.40
2022-08-10T00:52:57.949Z,13.26
2022-08-10T00:55:25.004Z,13.15
2022-08-10T00:57:55.035Z,13.12
2022-08-10T01:00:23.696Z,13.23
2022-08-10T01:02:50.628Z,13.28
2022-08-10T01:05:19.388Z,13.29
2022-08-10T01:08:10.990Z,13.39
2022-08-10T01:10:51.881Z,13.29
2022-08-10T01:13:48.850Z,13.39
2022-08-10T01:16:25.749Z,13.39
2022-08-10T01:19:19.543Z,13.40
2022-08-10T01:21:56.696Z,13.38
2022-08-10T01:24:42.590Z,13.43
2022-08-10T01:27:27.391Z,13.37
2022-08-10T01:30:10.752Z,13.18
2022-08-10T01:33:10.107Z,13.28
2022-08-10T01:35:45.964Z,13.31
2022-08-10T01:38:29.527Z,13.29
2022-08-10T01:41:06.861Z,13.33
2022-08-10T01:43:39.106Z,13.12
2022-08-10T01:46:08.493Z,13.10
2022-08-10T01:48:49.969Z,13.21
2022-08-10T01:51:32.924Z,13.22
2022-08-10T01:54:13.158Z,13.21
2022-08-10T01:56:43.316Z,13.05
2022-08-10T01:59:15.665Z,12.90
2022-08-10T02:01:49.485Z,12.87
2022-08-10T02:04:18.259Z,12.79
2022-08-10T02:06:51.127Z,12.73
2022-08-10T02:09:22.066Z,12.74
2022-08-10T02:12:05.454Z,12.63
2022-08-10T02:14:37.553Z,12.59
2022-08-10T02:17:09.326Z,12.54
2022-08-10T02:20:01.074Z,12.53
2022-08-10T02:22:36.771Z,12.48
2022-08-10T02:25:40.670Z,12.53
2022-08-10T02:28:06.462Z,12.57
2022-08-10T02:30:34.373Z,12.41
2022-08-10T02:33:02.130Z,12.36
2022-08-10T02:35:33.462Z,12.34
2022-08-10T02:38:23.256Z,12.31
2022-08-10T02:45:12.665Z,12.28
2022-08-10T02:45:20.852Z,12.23
2022-08-10T02:47:51.949Z,12.29
2022-08-10T02:50:41.980Z,12.14
2022-08-10T02:53:56.084Z,12.15
2022-08-10T02:56:26.771Z,12.12
2022-08-10T02:59:01.998Z,12.29
2022-08-10T03:01:34.176Z,12.31
2022-08-10T03:04:20.852Z,12.17
2022-08-10T03:07:12.591Z,12.31
2022-08-10T03:09:42.033Z,12.38
2022-08-10T03:12:36.227Z,12.45
2022-08-10T03:15:00.791Z,12.32
2022-08-10T03:17:29.573Z,12.14
2022-08-10T03:20:34.274Z,12.17
2022-08-10T03:22:46.671Z,12.23
2022-08-10T03:25:14.329Z,12.19
2022-08-10T03:27:42.665Z,12.05
2022-08-10T03:30:29.359Z,12.06
2022-08-10T03:32:58.366Z,12.24
2022-08-10T03:35:26.186Z,12.26
2022-08-10T03:37:55.834Z,12.16
2022-08-10T03:40:32.300Z,12.03
2022-08-10T03:43:21.711Z,12.04
2022-08-10T03:45:58.557Z,11.99
2022-08-10T03:48:33.298Z,12.00
2022-08-10T03:51:15.810Z,11.96
2022-08-10T03:54:05.427Z,12.03
2022-08-10T03:56:32.418Z,11.96
2022-08-10T03:59:00.554Z,11.95
2022-08-10T04:02:52.384Z,11.94
2022-08-10T04:04:19.323Z,11.94
2022-08-10T04:06:54.725Z,11.91
2022-08-10T04:09:23.929Z,12.02
2022-08-10T04:11:50.722Z,12.01
2022-08-10T04:14:49.015Z,12.14
2022-08-10T04:17:04.227Z,12.30
2022-08-10T04:19:44.812Z,12.30
2022-08-10T04:22:20.974Z,12.41
2022-08-10T04:24:53.697Z,12.52
2022-08-10T04:27:20.526Z,12.48
2022-08-10T04:29:49.075Z,12.34
2022-08-10T04:32:19.640Z,12.20
2022-08-10T04:34:47.746Z,12.29
2022-08-10T04:37:17.507Z,12.40
2022-08-10T04:39:44.809Z,12.58
2022-08-10T04:42:11.879Z,12.67
2022-08-10T04:44:39.178Z,12.77
2022-08-10T04:47:06.025Z,13.01
2022-08-10T04:49:54.768Z,13.14
2022-08-10T04:52:21.568Z,13.26
2022-08-10T04:54:52.176Z,13.32
2022-08-10T04:57:19.640Z,13.28
2022-08-10T04:59:46.559Z,13.45
2022-08-10T05:02:30.124Z,13.63
2022-08-10T05:05:00.288Z,13.82
2022-08-10T05:07:27.093Z,13.92
2022-08-10T05:10:00.986Z,14.05
2022-08-10T05:12:35.862Z,14.16
2022-08-10T05:15:11.656Z,14.23
2022-08-10T05:17:39.886Z,14.33
2022-08-10T05:20:09.552Z,14.43
2022-08-10T05:22:44.705Z,14.68
2022-08-10T05:25:14.393Z,14.86
2022-08-10T05:27:42.084Z,14.96
2022-08-10T05:30:13.751Z,15.15
2022-08-10T05:32:56.253Z,15.32
2022-08-10T05:35:27.349Z,15.51
2022-08-10T05:38:13.429Z,15.71
2022-08-10T05:40:47.074Z,15.91
2022-08-10T05:43:19.445Z,16.11
2022-08-10T05:46:17.628Z,16.28
2022-08-10T05:48:55.362Z,16.52
2022-08-10T05:51:24.010Z,16.69
2022-08-10T05:54:01.009Z,16.74
2022-08-10T05:56:56.709Z,16.96
2022-08-10T06:00:30.882Z,17.09
2022-08-10T06:02:39.690Z,17.20
2022-08-10T06:05:14.755Z,17.34
2022-08-10T06:08:01.825Z,17.47
2022-08-10T06:10:33.065Z,17.46
2022-08-10T06:13:26.811Z,17.41
2022-08-10T06:15:59.707Z,17.43
2022-08-10T06:18:26.783Z,17.38
2022-08-10T06:20:54.846Z,17.58
2022-08-10T06:23:23.924Z,17.69
2022-08-10T06:26:09.672Z,17.97
2022-08-10T06:28:40.751Z,17.86
2022-08-10T06:31:09.464Z,18.60
2022-08-10T06:33:39.421Z,19.67
2022-08-10T06:36:08.191Z,23.07
2022-08-10T06:38:38.129Z,22.71
2022-08-10T06:41:14.724Z,21.98
2022-08-10T06:43:50.153Z,22.43
2022-08-10T06:46:21.868Z,23.04
2022-08-10T06:48:55.603Z,24.77
2022-08-10T06:51:26.068Z,25.35
2022-08-10T06:53:56.343Z,26.40
2022-08-10T06:56:37.825Z,27.20
2022-08-10T06:59:27.039Z,26.67
2022-08-10T07:01:59.765Z,27.30
2022-08-10T07:04:32.268Z,26.76
2022-08-10T07:07:03.429Z,25.78
2022-08-10T07:09:32.437Z,25.50
2022-08-10T07:12:08.071Z,27.38
2022-08-10T07:14:44.944Z,26.79
2022-08-10T07:17:25.673Z,24.59
2022-08-10T07:19:55.892Z,23.92
2022-08-10T07:23:05.904Z,23.37
2022-08-10T07:25:17.270Z,23.18
2022-08-10T07:27:59.177Z,23.08
2022-08-10T07:30:30.513Z,23.10
2022-08-10T07:32:58.598Z,22.85
2022-08-10T07:35:28.345Z,22.64
2022-08-10T07:37:59.784Z,22.88
2022-08-10T07:40:26.857Z,22.75
2022-08-10T07:42:58.339Z,22.38
2022-08-10T07:45:29.919Z,21.42
2022-08-10T07:48:07.174Z,22.26
2022-08-10T07:50:37.758Z,22.85
2022-08-10T07:53:07.390Z,22.46
2022-08-10T07:56:04.635Z,22.57
2022-08-10T07:58:29.770Z,23.12
2022-08-10T08:00:59.288Z,22.90
2022-08-10T08:03:28.783Z,23.43
2022-08-10T08:06:03.242Z,23.63
2022-08-10T08:08:40.753Z,23.40
2022-08-10T08:11:08.972Z,23.89
2022-08-10T08:13:38.140Z,23.88
2022-08-10T08:16:20.611Z,24.18
2022-08-10T08:19:16.481Z,24.07
2022-08-10T08:24:05.068Z,24.44
2022-08-10T08:24:32.831Z,24.15
2022-08-10T08:27:05.091Z,24.37
2022-08-10T08:29:35.281Z,24.05
2022-08-10T08:32:04.855Z,24.32
2022-08-10T08:34:38.673Z,24.29
2022-08-10T08:37:07.583Z,24.39
2022-08-10T08:39:36.950Z,24.59
2022-08-10T08:42:22.538Z,24.64
2022-08-10T08:45:15.817Z,24.59
2022-08-10T08:48:04.467Z,24.93
2022-08-10T08:50:56.706Z,24.71
2022-08-10T08:54:01.929Z,25.14
2022-08-10T08:57:04.530Z,24.50
2022-08-10T08:59:52.043Z,24.60
2022-08-10T09:02:54.584Z,24.72
2022-08-10T09:05:30.774Z,25.07
2022-08-10T09:08:45.124Z,25.35
2022-08-10T09:11:33.080Z,25.03
2022-08-10T09:14:25.695Z,24.77
2022-08-10T09:16:58.758Z,24.80
2022-08-10T09:19:48.603Z,25.49
2022-08-10T09:22:32.561Z,25.70
2022-08-10T09:25:18.984Z,25.95
2022-08-10T09:27:50.045Z,26.11
2022-08-10T09:30:29.136Z,25.59
2022-08-10T09:36:21.928Z,24.66
2022-08-10T09:36:54.623Z,24.32
2022-08-10T09:40:55.879Z,25.12
2022-08-10T09:42:37.916Z,25.92
2022-08-10T09:45:26.427Z,25.94
2022-08-10T09:48:08.105Z,25.95
2022-08-10T09:51:34.936Z,26.23
2022-08-10T09:53:56.028Z,25.96
2022-08-10T09:56:48.924Z,25.95
2022-08-10T10:00:00.619Z,25.96
2022-08-10T10:02:43.323Z,25.76
2022-08-10T10:05:29.945Z,26.25
2022-08-10T10:08:24.859Z,26.58
2022-08-10T10:11:02.740Z,26.61
2022-08-10T10:14:03.353Z,26.71
2022-08-10T10:16:49.972Z,26.59
2022-08-10T10:19:17.348Z,26.35
2022-08-10T10:21:56.113Z,25.85
2022-08-10T10:24:47.747Z,25.79
2022-08-10T10:27:36.565Z,25.27
2022-08-10T10:30:10.453Z,25.98
2022-08-10T10:33:07.686Z,26.35
2022-08-10T10:35:55.527Z,26.98
2022-08-10T10:38:27.008Z,26.86
2022-08-10T10:41:08.637Z,26.66
2022-08-10T10:43:44.441Z,25.84
2022-08-10T10:46:39.028Z,26.67
2022-08-10T10:50:00.028Z,27.04
2022-08-10T10:52:32.138Z,26.93
2022-08-10T10:56:13.845Z,26.90
2022-08-10T10:58:30.044Z,26.54
2022-08-10T11:01:09.132Z,26.94
2022-08-10T11:03:50.942Z,26.82
2022-08-10T11:06:46.030Z,27.21
2022-08-10T11:10:05.498Z,26.93
2022-08-10T11:12:45.722Z,26.48
2022-08-10T11:15:32.954Z,26.96
2022-08-10T11:18:11.783Z,26.75
2022-08-10T11:20:51.554Z,26.76
2022-08-10T11:24:46.922Z,26.68
2022-08-10T11:26:45.270Z,26.84
2022-08-10T11:30:10.654Z,26.94
2022-08-10T11:32:51.847Z,27.43
2022-08-10T11:35:25.298Z,27.75
2022-08-10T11:38:34.265Z,27.76
2022-08-10T11:40:53.200Z,27.70
2022-08-10T11:43:26.301Z,27.57
2022-08-10T11:46:28.834Z,27.41
2022-08-10T11:49:06.212Z,26.80
2022-08-10T11:51:44.521Z,26.46
2022-08-10T11:54:35.178Z,26.45
2022-08-10T11:57:02.809Z,27.45
2022-08-10T11:59:58.265Z,27.70
2022-08-10T12:02:44.756Z,27.79
2022-08-10T12:05:51.510Z,27.58
2022-08-10T12:10:07.219Z,27.62
2022-08-10T12:11:18.170Z,27.52
2022-08-10T12:14:26.289Z,27.57
2022-08-10T12:17:02.911Z,28.12
2022-08-10T12:20:05.110Z,27.97
2022-08-10T12:22:38.807Z,28.00
2022-08-10T12:25:11.462Z,27.64
2022-08-10T12:28:11.176Z,27.68
2022-08-10T12:30:44.617Z,27.51
2022-08-10T12:33:21.236Z,27.66
2022-08-10T12:36:17.290Z,27.89
2022-08-10T12:39:06.807Z,27.81
2022-08-10T12:41:45.645Z,28.03
2022-08-10T12:44:40.950Z,28.06
2022-08-10T12:47:15.220Z,27.07
2022-08-10T12:50:23.835Z,26.72
2022-08-10T12:53:04.939Z,27.67
2022-08-10T12:55:37.604Z,27.95
2022-08-10T12:59:00.396Z,27.01
2022-08-10T13:01:15.745Z,27.50
2022-08-10T13:04:23.569Z,27.51
2022-08-10T13:06:36.974Z,27.29
2022-08-10T13:09:09.519Z,27.39
2022-08-10T13:12:38.365Z,26.67
2022-08-10T13:14:47.943Z,26.99
2022-08-10T13:17:22.411Z,27.56
2022-08-10T13:19:55.676Z,27.59
2022-08-10T13:22:28.652Z,26.54
2022-08-10T13:25:01.578Z,27.34
2022-08-10T13:28:00.691Z,27.59
2022-08-10T13:30:37.936Z,27.10
2022-08-10T13:33:07.371Z,26.83
2022-08-10T13:35:34.992Z,26.41
2022-08-10T13:38:03.779Z,26.32
2022-08-10T13:40:32.774Z,26.65
2022-08-10T13:43:01.859Z,26.80
2022-08-10T13:45:30.153Z,26.87
2022-08-10T13:48:10.271Z,26.83
2022-08-10T13:50:39.569Z,26.83
2022-08-10T13:53:14.981Z,26.77
2022-08-10T13:55:55.533Z,26.62
2022-08-10T13:58:32.997Z,26.88
2022-08-10T14:01:08.139Z,27.05
2022-08-10T14:03:38.390Z,27.06
2022-08-10T14:06:06.987Z,27.00
2022-08-10T14:08:35.482Z,26.79
2022-08-10T14:11:11.547Z,26.73
2022-08-10T14:14:01.999Z,26.60
2022-08-10T14:16:29.865Z,26.44
2022-08-10T14:19:01.477Z,26.71
2022-08-10T14:21:29.446Z,26.55
2022-08-10T14:23:57.015Z,26.34
2022-08-10T14:26:28.457Z,26.44
2022-08-10T14:28:58.399Z,26.37
2022-08-10T14:31:31.260Z,26.57
2022-08-10T14:34:00.838Z,26.51
2022-08-10T14:36:45.897Z,26.59
2022-08-10T14:39:22.369Z,26.30
2022-08-10T14:42:05.369Z,26.08
2022-08-10T14:44:45.048Z,26.39
2022-08-10T14:47:51.489Z,26.62
2022-08-10T14:50:03.369Z,26.71
2022-08-10T14:52:39.149Z,26.69
2022-08-10T14:55:19.372Z,26.45
2022-08-10T14:58:19.072Z,26.62
2022-08-10T15:00:42.700Z,26.53
2022-08-10T15:04:02.186Z,26.61
2022-08-10T15:06:00.104Z,26.74
2022-08-10T15:08:28.608Z,26.58
2022-08-10T15:10:58.215Z,26.52
2022-08-10T15:13:34.513Z,26.59
2022-08-10T15:16:13.762Z,26.58
2022-08-10T15:18:57.890Z,26.59
2022-08-10T15:21:42.307Z,26.83
2022-08-10T15:24:36.793Z,26.69
2022-08-10T15:27:08.663Z,26.23
2022-08-10T15:29:36.947Z,26.60
2022-08-10T15:32:49.281Z,26.51
2022-08-10T15:35:36.365Z,26.26
2022-08-10T15:38:06.952Z,26.32
2022-08-10T15:40:50.687Z,26.54
2022-08-10T15:43:25.404Z,26.57
2022-08-10T15:46:29.659Z,26.48
2022-08-10T15:49:02.093Z,26.24
2022-08-10T15:51:54.005Z,26.18
2022-08-10T15:54:54.490Z,25.96
2022-08-10T15:57:40.142Z,26.20
2022-08-10T16:00:12.403Z,26.32
2022-08-10T16:02:51.909Z,26.17
2022-08-10T16:05:40.747Z,26.10
2022-08-10T16:08:12.354Z,26.12
2022-08-10T16:11:08.301Z,26.32
2022-08-10T16:13:59.532Z,26.20
2022-08-10T16:16:32.651Z,26.20
2022-08-10T16:19:03.959Z,26.12
2022-08-10T16:21:58.878Z,26.05
2022-08-10T16:27:24.053Z,26.07
2022-08-10T16:29:58.404Z,26.01
2022-08-10T16:32:27.806Z,25.90
2022-08-10T16:34:56.621Z,25.90
2022-08-10T16:37:57.627Z,25.83
2022-08-10T16:40:20.283Z,25.48
2022-08-10T16:42:49.354Z,25.69
2022-08-10T16:45:24.269Z,25.81
2022-08-10T16:47:53.714Z,25.70
2022-08-10T16:50:38.663Z,25.48
2022-08-10T16:53:10.774Z,25.54
2022-08-10T16:55:49.638Z,25.36
2022-08-10T16:58:27.233Z,25.42
2022-08-10T17:01:00.616Z,25.29
2022-08-10T17:04:07.787Z,25.22
2022-08-10T17:06:35.102Z,25.25
2022-08-10T17:09:04.812Z,25.33
2022-08-10T17:11:34.810Z,25.28
2022-08-10T17:14:06.714Z,25.31
2022-08-10T17:16:36.308Z,25.26
2022-08-10T17:19:07.124Z,25.31
2022-08-10T17:21:50.914Z,25.06
2022-08-10T17:24:21.339Z,24.93
2022-08-10T17:26:50.387Z,25.08
2022-08-10T17:29:58.691Z,24.91
2022-08-10T17:32:44.248Z,25.05
2022-08-10T17:35:14.312Z,24.92
2022-08-10T17:37:47.623Z,24.70
2022-08-10T17:40:18.739Z,24.77
2022-08-10T17:42:47.735Z,24.66
2022-08-10T17:45:47.791Z,24.78
2022-08-10T17:48:09.691Z,24.77
2022-08-10T17:50:41.221Z,24.50
2022-08-10T17:53:16.158Z,24.39
2022-08-10T17:55:46.016Z,24.42
2022-08-10T17:58:16.332Z,24.37
2022-08-10T18:00:53.357Z,24.20
2022-08-10T18:03:34.416Z,24.00
2022-08-10T18:06:05.522Z,23.94
2022-08-10T18:08:39.502Z,23.97
2022-08-10T18:11:10.929Z,23.77
2022-08-10T18:13:55.520Z,23.81
2022-08-10T18:16:27.475Z,23.79
2022-08-10T18:19:00.716Z,23.53
2022-08-10T18:21:33.909Z,23.65
2022-08-10T18:24:15.626Z,23.53
2022-08-10T18:26:45.798Z,23.67
2022-08-10T18:29:18.399Z,23.42
2022-08-10T18:31:47.496Z,23.57
2022-08-10T18:34:20.800Z,23.34
2022-08-10T18:36:49.310Z,23.27
2022-08-10T18:39:22.017Z,23.08
2022-08-10T18:42:05.493Z,22.96
2022-08-10T18:44:47.449Z,22.88
2022-08-10T18:47:59.726Z,22.82
2022-08-10T18:50:33.028Z,22.56
2022-08-10T18:53:11.973Z,22.44
2022-08-10T18:55:46.320Z,22.28
2022-08-10T18:58:39.274Z,22.07
2022-08-10T19:01:17.917Z,21.67
2022-08-10T19:03:59.525Z,21.45
2022-08-10T19:06:26.606Z,21.37
2022-08-10T19:09:41.597Z,21.36
2022-08-10T19:12:32.089Z,21.26
2022-08-10T19:15:20.393Z,21.15
2022-08-10T19:18:07.495Z,20.98
2022-08-10T19:20:49.839Z,20.72
2022-08-10T19:23:30.135Z,20.35
2022-08-10T19:26:44.341Z,20.22
2022-08-10T19:30:12.458Z,20.30
2022-08-10T19:33:17.729Z,20.28
2022-08-10T19:36:05.478Z,19.99
2022-08-10T19:39:06.399Z,19.99
2022-08-10T19:41:48.247Z,20.04
2022-08-10T19:44:52.143Z,20.03
2022-08-10T19:47:28.996Z,19.86
2022-08-10T19:50:08.123Z,19.86
2022-08-10T19:52:47.158Z,19.81
2022-08-10T19:55:42.189Z,19.71
2022-08-10T19:58:32.226Z,19.64
2022-08-10T20:01:02.557Z,19.37
2022-08-10T20:03:41.664Z,19.36
2022-08-10T20:06:33.225Z,19.31
2022-08-10T20:09:06.743Z,19.17
2022-08-10T20:11:47.591Z,19.24
2022-08-10T20:14:23.112Z,19.25
2022-08-10T20:16:53.549Z,19.22
2022-08-10T20:19:53.481Z,19.14
2022-08-10T20:22:29.475Z,19.16
2022-08-10T20:25:27.721Z,18.93
2022-08-10T20:28:02.310Z,18.76
2022-08-10T20:30:32.584Z,18.60
2022-08-10T20:33:33.169Z,18.50
2022-08-10T20:36:23.586Z,18.54
2022-08-10T20:38:53.494Z,18.61
2022-08-10T20:42:11.454Z,18.52
2022-08-10T20:44:38.143Z,18.49
2022-08-10T20:47:16.806Z,18.46
2022-08-10T20:50:02.880Z,18.41
2022-08-10T20:52:33.235Z,18.31
2022-08-10T20:55:04.323Z,18.21
2022-08-10T20:57:55.353Z,17.92
2022-08-10T21:00:46.835Z,17.79
2022-08-10T21:03:31.873Z,17.80
2022-08-10T21:06:43.264Z,17.79
2022-08-10T21:09:22.876Z,17.79
2022-08-10T21:12:14.239Z,17.75
2022-08-10T21:15:07.849Z,17.56
2022-08-10T21:17:53.315Z,17.62
2022-08-10T21:20:47.501Z,17.53
2022-08-10T21:23:24.828Z,17.26
2022-08-10T21:26:19.389Z,17.29
2022-08-10T21:29:37.864Z,17.27
2022-08-10T21:32:19.017Z,17.19
2022-08-10T21:35:11.301Z,17.32
2022-08-10T21:37:56.584Z,17.24
2022-08-10T21:40:36.242Z,17.15
2022-08-10T21:43:53.215Z,17.22
2022-08-10T21:47:39.466Z,17.08
2022-08-10T21:53:28.867Z,17.01
2022-08-10T21:56:31.591Z,16.87
2022-08-10T21:59:56.122Z,16.93
2022-08-10T22:02:50.234Z,16.96
2022-08-10T22:05:42.331Z,16.97
2022-08-10T22:08:29.894Z,16.97
2022-08-10T22:11:17.709Z,16.74
2022-08-10T22:14:09.385Z,16.73
2022-08-10T22:17:02.130Z,16.77
2022-08-10T22:19:57.579Z,16.59
2022-08-10T22:22:58.270Z,16.49
2022-08-10T22:25:53.166Z,16.37
2022-08-10T22:28:38.482Z,16.28
2022-08-10T22:31:50.766Z,16.20
2022-08-10T22:34:58.757Z,16.24
2022-08-10T22:37:56.141Z,16.23
2022-08-10T22:40:42.403Z,16.14
2022-08-10T22:43:40.398Z,16.06
2022-08-10T22:46:44.165Z,15.94
2022-08-10T22:49:11.054Z,15.86
2022-08-10T22:51:48.740Z,15.94
2022-08-10T22:54:57.943Z,15.97
2022-08-10T22:57:43.530Z,15.92
2022-08-10T23:00:14.644Z,15.81
2022-08-10T23:02:50.308Z,15.67
2022-08-10T23:05:24.585Z,15.67
2022-08-10T23:08:01.715Z,15.65
2022-08-10T23:10:33.758Z,15.52
2022-08-10T23:13:10.102Z,15.44
2022-08-10T23:15:58.283Z,15.41
2022-08-10T23:19:10.927Z,15.38
2022-08-10T23:22:04.287Z,15.31
2022-08-10T23:24:41.923Z,15.31
2022-08-10T23:27:37.656Z,15.24
2022-08-10T23:30:09.382Z,15.21
2022-08-10T23:33:01.040Z,15.21
2022-08-10T23:36:30.146Z,15.18
2022-08-10T23:38:33.750Z,15.14
2022-08-10T23:41:03.404Z,15.28
2022-08-10T23:44:03.010Z,15.25
2022-08-10T23:46:29.086Z,15.07
2022-08-10T23:48:59.712Z,15.04
2022-08-10T23:51:54.769Z,14.96
2022-08-10T23:54:23.016Z,15.03
2022-08-10T23:56:55.460Z,14.90
2022-08-10T23:59:24.771Z,14.87
